Stinesville, IN

7:30 PM EST on March 02, 2015 (GMT -0500)
GosportINWX | Change Station
CLOSE
Current Station
Personal Weather Station
Location: Gosport, IN
Elevation: 751 ft
Nearby Weather Stations
Active Advisory: Winter Weather Advisory Active Notice: Local Storm Report

Elev 751 ft 39.30 °N, 86.70 °W | Updated 41 seconds ago

Partly Cloudy
Partly Cloudy
28.2 °F
Feels Like 24 °F
N
4.1
Wind Variable Wind from NE
Gusts 7.0 mph

Today
High -- | Low -- °F
--% Chance of Precip.
Yesterday
High -- | Low -- °F
Precip. -- in
7:18 AM 6:39 PM
Waxing Gibbous, 93% visible
Pressure 30.43 in
Visibility 10.0 miles
Clouds Clear
Windchill 24 °F
Dew Point 10 °F
Humidity 45%
Rainfall 0.00 in
Snow Depth Not available.
UV 0 out of 12
Pollen 1.10 out of 12
Air Quality Not available.
Flu Activity Widespread
METAR KBMG 022353Z 15006KT 10SM CLR 00/M08 A3039 RMK AO2 SLP302 60000 T00001083 10033 20000 58006

More Conditions Fewer Conditions

Pressure 30.43 in
Visibility 10.0 miles
Clouds Clear
Windchill 24 °F
Dew Point 10 °F
Humidity 45%
Rainfall 0.00 in
Snow Depth Not available.
UV 0 out of 12
Pollen 1.10 out of 12
Air Quality Not available.
Flu Activity Widespread
METAR KBMG 022353Z 15006KT 10SM CLR 00/M08 A3039 RMK AO2 SLP302 60000 T00001083 10033 20000 58006

More Conditions Fewer Conditions

10-Day Weather Forecast

Almanac

Astronomy

Mar. 02, 2015 Rise Set
Actual Time 7:18 AM EST 6:39 PM EST
Civil Twilight 6:51 AM EST 7:06 PM EST
Nautical Twilight 6:20 AM EST 7:37 PM EST
Astronomical Twilight 5:49 AM EST 8:08 PM EST
Moon 4:09 PM EST (3/2) 5:20 AM EST (3/2)
Length of Visible Light 12h 15m
Length of Day
11h 21m
Tomorrow will be 2m 31s longer.
Waxing Gibbous, 93% of the Moon is Illuminated
Today
Waxing Gibbous
Mar 5
Full
Mar 13
Last Quarter
Mar 20
New
Mar 27
First Quarter

Today's Extremes

State Highs State Lows

Community

WunderPhotos

Upload Photos

1,802,006 photos uploaded!

Nearby

Snow Depth

Station Depth Elevation
No new snow has been reported.

Earthquake Activity

City Distance Mag. Time & Date
No recent earthquake activity has been reported nearby.
Minimum magnitude displayed is 2.5.

Coastal Water Temperatures

Place Temperature
No Stations Reporting

Nearby Weather Stations